createdAt,value
2018-02-17T00:00:47.615Z,44.92
2018-02-17T00:03:15.051Z,43.35
2018-02-17T00:05:42.515Z,41.60
2018-02-17T00:08:09.958Z,41.10
2018-02-17T00:10:37.452Z,42.90
2018-02-17T00:13:04.886Z,43.58
2018-02-17T00:15:32.322Z,42.30
2018-02-17T00:17:59.747Z,39.75
2018-02-17T00:20:27.211Z,39.17
2018-02-17T00:22:54.655Z,41.10
2018-02-17T00:25:22.099Z,41.65
2018-02-17T00:27:49.526Z,40.72
2018-02-17T00:30:16.965Z,41.75
2018-02-17T00:32:44.406Z,42.75
2018-02-17T00:35:11.847Z,42.28
2018-02-17T00:37:39.288Z,40.33
2018-02-17T00:40:06.715Z,39.75
2018-02-17T00:42:34.152Z,41.70
2018-02-17T00:45:01.602Z,40.70
2018-02-17T00:47:29.027Z,41.97
2018-02-17T00:49:56.477Z,39.95
2018-02-17T00:52:23.924Z,38.60
2018-02-17T00:54:51.347Z,39.30
2018-02-17T00:57:18.773Z,37.03
2018-02-17T00:59:46.210Z,39.38
2018-02-17T01:02:13.635Z,38.88
2018-02-17T01:04:41.084Z,41.25
2018-02-17T01:07:08.515Z,38.80
2018-02-17T01:09:35.934Z,40.05
2018-02-17T01:12:03.379Z,38.33
2018-02-17T01:14:30.804Z,38.88
2018-02-17T01:16:58.235Z,39.47
2018-02-17T01:19:25.675Z,40.58
2018-02-17T01:21:53.103Z,41.78
2018-02-17T01:24:20.534Z,40.85
2018-02-17T01:26:47.982Z,41.85
2018-02-17T01:29:15.413Z,44.47
2018-02-17T01:31:42.849Z,41.97
2018-02-17T01:34:10.293Z,44.05
2018-02-17T01:36:37.728Z,46.80
2018-02-17T01:39:05.183Z,42.20
2018-02-17T01:41:32.611Z,44.72
2018-02-17T01:44:00.043Z,43.40
2018-02-17T01:46:27.476Z,50.97
2018-02-17T01:48:54.902Z,46.67
2018-02-17T01:51:22.343Z,47.20
2018-02-17T01:53:49.769Z,47.30
2018-02-17T01:56:17.206Z,49.67
2018-02-17T01:58:44.648Z,49.58
2018-02-17T02:01:12.066Z,47.90
2018-02-17T02:03:39.511Z,45.42
2018-02-17T02:06:06.938Z,43.87
2018-02-17T02:08:34.371Z,47.70
2018-02-17T02:11:01.808Z,45.67
2018-02-17T02:13:29.235Z,44.70
2018-02-17T02:15:56.666Z,47.33
2018-02-17T02:18:25.427Z,48.60
2018-02-17T02:20:52.934Z,53.20
2018-02-17T02:23:20.393Z,49.38
2018-02-17T02:25:47.824Z,45.03
2018-02-17T02:28:15.246Z,48.38
2018-02-17T02:30:42.688Z,45.28
2018-02-17T02:33:10.119Z,45.97
2018-02-17T02:35:37.552Z,45.33
2018-02-17T02:38:04.992Z,44.78
2018-02-17T02:40:32.420Z,45.70
2018-02-17T02:42:59.851Z,47.45
2018-02-17T02:45:27.300Z,45.55
2018-02-17T02:47:54.727Z,46.88
2018-02-17T02:50:22.155Z,43.22
2018-02-17T02:52:49.600Z,41.03
2018-02-17T02:55:17.032Z,43.40
2018-02-17T02:57:44.456Z,41.95
2018-02-17T03:00:11.891Z,45.00
2018-02-17T03:02:39.322Z,45.30
2018-02-17T03:05:06.738Z,45.05
2018-02-17T03:07:34.176Z,41.17
2018-02-17T03:10:01.603Z,42.92
2018-02-17T03:12:29.031Z,44.83
2018-02-17T03:14:56.541Z,47.90
2018-02-17T03:17:23.947Z,42.35
2018-02-17T03:19:51.366Z,45.50
2018-02-17T03:22:18.806Z,43.35
2018-02-17T03:24:46.260Z,44.22
2018-02-17T03:27:13.683Z,44.67
2018-02-17T03:29:41.114Z,44.25
2018-02-17T03:32:08.550Z,43.40
2018-02-17T03:34:35.985Z,44.35
2018-02-17T03:37:03.427Z,42.97
2018-02-17T03:39:30.855Z,44.25
2018-02-17T03:41:58.282Z,42.83
2018-02-17T03:44:25.723Z,42.75
2018-02-17T03:46:53.147Z,43.33
2018-02-17T03:49:20.567Z,46.22
2018-02-17T03:51:48.007Z,43.92
2018-02-17T03:54:15.438Z,45.35
2018-02-17T03:56:43.011Z,44.65
2018-02-17T03:59:10.434Z,43.65
2018-02-17T04:01:37.855Z,43.25
2018-02-17T04:04:05.287Z,42.35
2018-02-17T04:06:32.715Z,44.17
2018-02-17T04:09:00.162Z,42.22
2018-02-17T04:11:27.587Z,45.08
2018-02-17T04:13:55.015Z,43.65
2018-02-17T04:16:22.455Z,46.83
2018-02-17T04:18:49.887Z,48.60
2018-02-17T04:21:17.313Z,46.70
2018-02-17T04:23:44.754Z,47.50
2018-02-17T04:26:12.178Z,46.30
2018-02-17T04:28:39.603Z,47.62
2018-02-17T04:31:07.042Z,46.60
2018-02-17T04:33:34.475Z,46.63
2018-02-17T04:36:01.898Z,45.30
2018-02-17T04:38:29.346Z,42.35
2018-02-17T04:41:06.682Z,45.60
2018-02-17T04:57:23.168Z,41.63
2018-02-17T04:59:50.586Z,40.50
2018-02-17T05:02:18.378Z,44.20
2018-02-17T05:05:00.685Z,44.17
2018-02-17T05:07:32.698Z,45.22
2018-02-17T05:10:00.114Z,46.85
2018-02-17T05:12:27.559Z,45.33
2018-02-17T05:15:11.646Z,40.70
2018-02-17T05:17:47.530Z,45.97
2018-02-17T05:20:16.472Z,42.42
2018-02-17T05:22:45.346Z,41.37
2018-02-17T05:38:48.395Z,40.70
2018-02-17T05:41:30.738Z,41.10
2018-02-17T05:43:58.176Z,38.97
2018-02-17T05:46:27.950Z,41.30
2018-02-17T05:48:55.380Z,41.60
2018-02-17T05:51:22.820Z,41.92
2018-02-17T05:53:50.250Z,39.63
2018-02-17T05:56:17.671Z,40.58
2018-02-17T05:58:45.111Z,37.92
2018-02-17T06:01:12.531Z,38.38
2018-02-17T06:03:39.946Z,40.00
2018-02-17T06:06:07.388Z,42.95
2018-02-17T06:08:34.843Z,39.53
2018-02-17T06:11:02.255Z,40.88
2018-02-17T06:13:29.670Z,41.03
2018-02-17T06:15:57.095Z,43.08
2018-02-17T06:18:28.118Z,41.00
2018-02-17T06:20:55.622Z,41.37
2018-02-17T06:23:23.058Z,42.10
2018-02-17T06:25:50.482Z,39.72
2018-02-17T06:28:17.902Z,45.60
2018-02-17T06:30:45.348Z,42.75
2018-02-17T06:33:12.767Z,41.28
2018-02-17T06:35:40.185Z,41.45
2018-02-17T06:38:07.615Z,41.85
2018-02-17T06:40:35.015Z,41.47
2018-02-17T06:43:02.487Z,41.00
2018-02-17T06:45:29.911Z,41.78
2018-02-17T06:47:57.345Z,38.85
2018-02-17T06:50:24.758Z,40.12
2018-02-17T06:52:52.202Z,37.78
2018-02-17T06:55:19.618Z,35.97
2018-02-17T06:57:47.039Z,38.25
2018-02-17T07:00:14.474Z,38.50
2018-02-17T07:02:41.896Z,37.70
2018-02-17T07:05:09.335Z,38.25
2018-02-17T07:07:36.786Z,38.70
2018-02-17T07:10:04.203Z,37.47
2018-02-17T07:12:31.629Z,39.92
2018-02-17T07:14:59.071Z,37.88
2018-02-17T07:17:26.481Z,35.47
2018-02-17T07:19:53.918Z,37.95
2018-02-17T07:22:21.338Z,37.63
2018-02-17T07:24:48.764Z,38.83
2018-02-17T07:27:16.194Z,33.15
2018-02-17T07:29:43.623Z,35.97
2018-02-17T07:32:11.049Z,33.75
2018-02-17T07:34:38.482Z,33.28
2018-02-17T07:37:05.905Z,34.35
2018-02-17T07:39:33.319Z,32.97
2018-02-17T07:42:00.758Z,33.28
2018-02-17T07:44:28.170Z,34.05
2018-02-17T07:46:55.606Z,34.70
2018-02-17T07:49:23.026Z,33.88
2018-02-17T07:51:50.452Z,32.60
2018-02-17T07:54:17.887Z,32.08
2018-02-17T07:56:45.302Z,32.28
2018-02-17T07:59:12.724Z,35.95
2018-02-17T08:01:40.166Z,36.33
2018-02-17T08:04:07.595Z,37.72
2018-02-17T08:06:35.014Z,36.95
2018-02-17T08:09:02.457Z,35.60
2018-02-17T08:11:29.874Z,34.80
2018-02-17T08:13:57.311Z,34.10
2018-02-17T08:16:24.751Z,34.90
2018-02-17T08:18:52.175Z,35.38
2018-02-17T08:21:19.688Z,35.58
2018-02-17T08:23:47.336Z,38.35
2018-02-17T08:26:14.800Z,37.10
2018-02-17T08:28:42.451Z,39.33
2018-02-17T08:31:10.213Z,39.33
2018-02-17T08:33:37.797Z,33.65
2018-02-17T08:36:05.300Z,31.87
2018-02-17T08:38:32.830Z,33.58
2018-02-17T08:41:00.446Z,31.95
2018-02-17T08:43:27.863Z,33.00
2018-02-17T08:45:55.283Z,32.33
2018-02-17T08:48:22.711Z,32.90
2018-02-17T08:50:50.122Z,34.10
2018-02-17T08:53:17.567Z,32.67
2018-02-17T08:55:44.989Z,34.83
2018-02-17T08:58:12.408Z,31.90
2018-02-17T09:00:39.826Z,32.47
2018-02-17T09:03:07.246Z,31.08
2018-02-17T09:05:34.673Z,31.52
2018-02-17T09:08:02.095Z,31.23
2018-02-17T09:10:41.134Z,29.87
2018-02-17T09:13:08.565Z,29.55
2018-02-17T09:15:35.986Z,31.80
2018-02-17T09:18:03.423Z,31.20
2018-02-17T09:20:30.851Z,29.73
2018-02-17T09:22:58.280Z,29.63
2018-02-17T09:25:25.720Z,30.48
2018-02-17T09:27:53.144Z,32.35
2018-02-17T09:30:20.568Z,31.55
2018-02-17T09:32:48.002Z,32.78
2018-02-17T09:35:15.425Z,29.45
2018-02-17T09:37:42.866Z,29.60
2018-02-17T09:40:10.301Z,31.25
2018-02-17T09:42:37.731Z,30.10
2018-02-17T09:45:05.155Z,31.40
2018-02-17T09:47:32.630Z,31.60
2018-02-17T09:50:00.054Z,32.33
2018-02-17T09:52:27.482Z,30.60
2018-02-17T09:54:54.977Z,30.00
2018-02-17T09:57:22.351Z,29.30
2018-02-17T09:59:49.775Z,27.77
2018-02-17T10:02:17.222Z,28.12
2018-02-17T10:04:44.635Z,28.60
2018-02-17T10:07:12.060Z,29.92
2018-02-17T10:09:39.502Z,28.95
2018-02-17T10:12:06.917Z,28.75
2018-02-17T10:14:34.352Z,29.98
2018-02-17T10:17:01.773Z,30.10
2018-02-17T10:19:29.232Z,28.15
2018-02-17T10:21:56.634Z,29.83
2018-02-17T10:24:24.083Z,29.50
2018-02-17T10:26:51.495Z,29.10
2018-02-17T10:29:18.919Z,28.50
2018-02-17T10:31:46.335Z,29.40
2018-02-17T10:34:13.772Z,27.00
2018-02-17T10:36:41.199Z,28.65
2018-02-17T10:39:08.635Z,28.05
2018-02-17T10:41:36.091Z,27.02
2018-02-17T10:44:03.480Z,27.13
2018-02-17T10:46:30.923Z,29.65
2018-02-17T10:48:58.343Z,28.98
2018-02-17T10:51:25.771Z,28.98
2018-02-17T10:53:53.193Z,31.00
2018-02-17T10:56:20.618Z,28.92
2018-02-17T10:58:48.029Z,31.30
2018-02-17T11:01:15.462Z,29.73
2018-02-17T11:03:42.890Z,29.55
2018-02-17T11:06:17.341Z,33.05
2018-02-17T11:08:44.810Z,31.87
2018-02-17T11:11:12.231Z,33.50
2018-02-17T11:13:39.667Z,29.87
2018-02-17T11:16:07.099Z,27.15
2018-02-17T11:18:34.682Z,24.98
2018-02-17T11:21:02.101Z,26.77
2018-02-17T11:23:29.514Z,26.42
2018-02-17T11:25:56.948Z,26.10
2018-02-17T11:28:24.414Z,26.55
2018-02-17T11:30:51.831Z,28.05
2018-02-17T11:33:19.258Z,29.25
2018-02-17T11:35:46.689Z,27.25
2018-02-17T11:38:14.183Z,29.83
2018-02-17T11:40:41.607Z,29.12
2018-02-17T11:43:09.026Z,31.33
2018-02-17T11:45:36.415Z,30.00
2018-02-17T11:48:03.919Z,27.55
2018-02-17T11:50:31.335Z,28.77
2018-02-17T11:52:58.755Z,28.70
2018-02-17T11:55:26.181Z,30.05
2018-02-17T11:57:53.614Z,29.80
2018-02-17T12:00:21.022Z,28.30
2018-02-17T12:02:48.522Z,26.75
2018-02-17T12:05:15.978Z,25.58
2018-02-17T12:07:43.423Z,25.88
2018-02-17T12:10:10.842Z,25.70
2018-02-17T12:12:38.284Z,26.48
2018-02-17T12:15:05.809Z,30.12
2018-02-17T12:17:33.231Z,27.20
2018-02-17T12:20:00.671Z,27.30
2018-02-17T12:22:28.239Z,29.08
2018-02-17T12:24:55.674Z,29.45
2018-02-17T12:27:23.099Z,31.42
2018-02-17T12:29:50.518Z,29.95
2018-02-17T12:32:18.024Z,30.08
2018-02-17T12:34:45.448Z,33.10
2018-02-17T12:37:13.498Z,29.23
2018-02-17T12:39:41.332Z,35.40
2018-02-17T12:42:09.096Z,30.98
2018-02-17T12:44:36.520Z,31.20
2018-02-17T12:47:06.114Z,34.17
2018-02-17T12:49:33.689Z,34.10
2018-02-17T12:52:01.116Z,33.15
2018-02-17T12:54:28.576Z,34.78
2018-02-17T12:56:56.022Z,32.85
2018-02-17T12:59:23.460Z,34.22
2018-02-17T13:01:50.915Z,35.40
2018-02-17T13:04:18.374Z,36.03
2018-02-17T13:06:45.816Z,35.83
2018-02-17T13:09:13.238Z,36.50
2018-02-17T13:11:40.836Z,34.85
2018-02-17T13:14:08.282Z,36.65
2018-02-17T13:16:35.732Z,35.80
2018-02-17T13:19:04.256Z,36.58
2018-02-17T13:21:31.699Z,35.53
2018-02-17T13:23:59.302Z,39.53
2018-02-17T13:26:26.765Z,36.25
2018-02-17T13:28:54.211Z,34.33
2018-02-17T13:31:21.634Z,35.97
2018-02-17T13:33:49.059Z,35.58
2018-02-17T13:36:16.537Z,34.13
2018-02-17T13:38:43.958Z,36.17
2018-02-17T13:41:11.397Z,35.50
2018-02-17T13:43:39.119Z,36.28
2018-02-17T13:46:06.550Z,34.25
2018-02-17T13:48:33.984Z,33.78
2018-02-17T13:51:01.407Z,32.35
2018-02-17T13:53:28.891Z,35.75
2018-02-17T13:55:56.309Z,30.65
2018-02-17T13:58:23.730Z,32.35
2018-02-17T14:00:51.160Z,29.23
2018-02-17T14:03:18.716Z,30.27
2018-02-17T14:05:46.151Z,28.60
2018-02-17T14:08:13.582Z,26.60
2018-02-17T14:10:40.995Z,27.20
2018-02-17T14:13:08.492Z,27.00
2018-02-17T14:15:35.919Z,25.30
2018-02-17T14:18:03.530Z,24.83
2018-02-17T14:20:30.965Z,24.75
2018-02-17T14:22:58.439Z,22.70
2018-02-17T14:25:25.872Z,21.75
2018-02-17T14:27:53.347Z,22.92
2018-02-17T14:30:20.797Z,20.65
2018-02-17T14:32:48.342Z,19.27
2018-02-17T14:35:15.790Z,19.83
2018-02-17T14:37:43.223Z,19.67
2018-02-17T14:40:10.830Z,20.45
2018-02-17T14:42:39.287Z,18.45
2018-02-17T14:45:07.420Z,20.15
2018-02-17T14:47:34.943Z,20.33
2018-02-17T14:50:20.868Z,18.65
2018-02-17T14:52:49.068Z,20.77
2018-02-17T14:55:17.056Z,19.65
2018-02-17T14:57:45.062Z,18.98
2018-02-17T15:00:12.712Z,19.20
2018-02-17T15:02:40.799Z,18.15
2018-02-17T15:05:08.440Z,18.98
2018-02-17T15:07:36.464Z,19.87
2018-02-17T15:10:04.414Z,19.27
2018-02-17T15:12:32.417Z,20.25
2018-02-17T15:14:59.841Z,22.60
2018-02-17T15:17:27.903Z,21.52
2018-02-17T15:19:55.505Z,23.75
2018-02-17T15:22:28.871Z,25.27
2018-02-17T15:24:56.302Z,26.25
2018-02-17T15:27:26.360Z,24.23
2018-02-17T15:29:54.725Z,23.27
2018-02-17T15:32:22.278Z,22.95
2018-02-17T15:37:31.498Z,26.12
2018-02-17T15:40:00.664Z,24.63
2018-02-17T15:42:33.635Z,28.55
2018-02-17T15:45:02.119Z,27.62
2018-02-17T15:47:29.751Z,33.00
2018-02-17T15:49:57.582Z,31.80
2018-02-17T15:52:26.512Z,29.10
2018-02-17T15:54:54.260Z,26.67
2018-02-17T15:57:24.697Z,30.62
2018-02-17T15:59:53.028Z,31.50
2018-02-17T16:02:21.367Z,32.00
2018-02-17T16:04:49.797Z,34.00
2018-02-17T16:07:19.090Z,33.90
2018-02-17T16:09:46.801Z,33.63
2018-02-17T16:12:15.075Z,35.97
2018-02-17T16:14:44.549Z,33.75
2018-02-17T16:17:13.213Z,35.20
2018-02-17T16:19:40.983Z,36.63
2018-02-17T16:22:10.412Z,38.10
2018-02-17T16:24:38.767Z,38.15
2018-02-17T16:27:06.402Z,37.50
2018-02-17T16:29:34.544Z,42.78
2018-02-17T16:32:02.284Z,38.80
2018-02-17T16:34:29.878Z,40.65
2018-02-17T16:36:59.938Z,37.65
2018-02-17T16:39:28.261Z,36.67
2018-02-17T16:41:56.288Z,40.42
2018-02-17T16:44:24.745Z,39.00
2018-02-17T16:46:57.556Z,41.65
2018-02-17T16:49:26.966Z,41.40
2018-02-17T16:51:55.560Z,42.10
2018-02-17T16:54:23.028Z,40.83
2018-02-17T16:56:52.617Z,43.75
2018-02-17T16:59:20.143Z,44.28
2018-02-17T17:01:47.971Z,46.90
2018-02-17T17:04:16.881Z,44.00
2018-02-17T17:06:45.298Z,47.08
2018-02-17T17:09:12.727Z,43.75
2018-02-17T17:11:40.950Z,44.75
2018-02-17T17:14:08.432Z,45.90
2018-02-17T17:16:36.854Z,45.40
2018-02-17T17:19:04.535Z,41.85
2018-02-17T17:21:35.007Z,43.67
2018-02-17T17:24:05.269Z,47.05
2018-02-17T17:26:35.884Z,44.47
2018-02-17T17:29:03.763Z,45.28
2018-02-17T17:31:31.699Z,44.80
2018-02-17T17:34:01.263Z,49.00
2018-02-17T17:36:28.912Z,44.83
2018-02-17T17:38:57.784Z,43.60
2018-02-17T17:41:26.165Z,41.25
2018-02-17T17:43:53.757Z,42.45
2018-02-17T17:46:22.572Z,46.55
2018-02-17T17:48:55.970Z,44.55
2018-02-17T17:51:28.991Z,44.08
2018-02-17T17:53:56.475Z,46.92
2018-02-17T17:56:24.675Z,46.78
2018-02-17T17:58:53.299Z,46.90
2018-02-17T18:01:22.347Z,49.25
2018-02-17T18:03:50.079Z,47.67
2018-02-17T18:06:18.519Z,47.08
2018-02-17T18:08:45.945Z,48.50
2018-02-17T18:11:13.386Z,49.33
2018-02-17T18:13:40.820Z,51.92
2018-02-17T18:16:08.242Z,50.25
2018-02-17T18:18:35.676Z,48.92
2018-02-17T18:21:03.099Z,51.75
2018-02-17T18:23:30.543Z,49.83
2018-02-17T18:25:58.059Z,53.28
2018-02-17T18:28:25.481Z,50.85
2018-02-17T18:30:53.097Z,53.03
2018-02-17T18:33:20.530Z,58.17
2018-02-17T18:35:47.967Z,52.10
2018-02-17T18:38:15.393Z,55.75
2018-02-17T18:40:43.200Z,57.95
2018-02-17T18:43:10.619Z,60.47
2018-02-17T18:45:38.044Z,57.90
2018-02-17T18:48:08.010Z,57.38
2018-02-17T18:50:35.435Z,62.70
2018-02-17T18:53:02.860Z,55.10
2018-02-17T18:55:30.524Z,61.72
2018-02-17T18:57:58.787Z,64.57
2018-02-17T19:00:26.224Z,66.55
2018-02-17T19:02:53.633Z,67.00
2018-02-17T19:05:22.304Z,63.50
2018-02-17T19:07:49.726Z,62.80
2018-02-17T19:10:17.162Z,66.18
2018-02-17T19:12:44.606Z,62.95
2018-02-17T19:15:12.030Z,60.00
2018-02-17T19:17:39.498Z,65.85
2018-02-17T19:20:06.967Z,66.57
2018-02-17T19:22:35.436Z,64.68
2018-02-17T19:25:03.142Z,66.93
2018-02-17T19:27:30.586Z,67.70
2018-02-17T19:29:58.070Z,68.20
2018-02-17T19:32:25.574Z,66.62
2018-02-17T19:34:53.001Z,64.82
2018-02-17T19:37:20.551Z,58.22
2018-02-17T19:39:48.069Z,66.90
2018-02-17T19:42:15.528Z,65.12
2018-02-17T19:44:42.954Z,67.80
2018-02-17T19:47:10.409Z,64.22
2018-02-17T19:49:37.915Z,67.05
2018-02-17T19:52:05.345Z,66.37
2018-02-17T19:54:32.781Z,68.60
2018-02-17T19:57:00.675Z,68.07
2018-02-17T19:59:28.644Z,72.28
2018-02-17T20:01:57.417Z,68.57
2018-02-17T20:04:24.838Z,71.20
2018-02-17T20:06:52.910Z,66.60
2018-02-17T20:09:20.389Z,69.10
2018-02-17T20:11:47.892Z,70.12
2018-02-17T20:14:15.613Z,72.05
2018-02-17T20:16:43.104Z,63.50
2018-02-17T20:19:10.519Z,69.37
2018-02-17T20:21:37.951Z,74.62
2018-02-17T20:24:05.395Z,69.35
2018-02-17T20:26:32.854Z,71.80
2018-02-17T20:29:00.290Z,74.20
2018-02-17T20:31:27.748Z,75.43
2018-02-17T20:33:55.182Z,68.05
2018-02-17T20:36:23.228Z,70.93
2018-02-17T20:38:50.799Z,68.95
2018-02-17T20:41:18.292Z,70.32
2018-02-17T20:46:18.706Z,70.82
2018-02-17T20:48:46.262Z,67.05
2018-02-17T20:51:13.713Z,69.35
2018-02-17T20:53:41.194Z,64.60
2018-02-17T20:56:08.631Z,66.80
2018-02-17T20:58:36.051Z,71.07
2018-02-17T21:01:03.474Z,65.68
2018-02-17T21:03:33.425Z,64.90
2018-02-17T21:06:00.923Z,69.68
2018-02-17T21:08:28.354Z,72.10
2018-02-17T21:10:55.790Z,65.37
2018-02-17T21:13:23.296Z,64.68
2018-02-17T21:15:50.730Z,62.97
2018-02-17T21:18:18.176Z,66.55
2018-02-17T21:20:45.594Z,66.85
2018-02-17T21:23:13.020Z,62.03
2018-02-17T21:25:40.456Z,68.57
2018-02-17T21:28:07.938Z,68.78
2018-02-17T21:30:35.366Z,63.25
2018-02-17T21:33:02.808Z,65.95
2018-02-17T21:35:30.320Z,67.80
2018-02-17T21:37:57.760Z,63.53
2018-02-17T21:40:25.218Z,57.95
2018-02-17T21:42:52.647Z,61.15
2018-02-17T21:45:20.086Z,63.45
2018-02-17T21:47:47.531Z,64.03
2018-02-17T21:50:14.963Z,61.63
2018-02-17T21:52:44.814Z,61.75
2018-02-17T21:55:12.483Z,60.80
2018-02-17T21:57:40.338Z,65.45
2018-02-17T22:00:07.971Z,60.70
2018-02-17T22:02:35.550Z,59.75
2018-02-17T22:05:03.047Z,60.08
2018-02-17T22:07:30.583Z,63.65
2018-02-17T22:09:58.031Z,57.62
2018-02-17T22:12:26.008Z,57.53
2018-02-17T22:14:53.932Z,54.30
2018-02-17T22:17:21.471Z,58.45
2018-02-17T22:19:58.255Z,58.67
2018-02-17T22:22:25.822Z,57.50
2018-02-17T22:24:53.266Z,54.88
2018-02-17T22:27:20.687Z,58.08
2018-02-17T22:29:48.122Z,53.60
2018-02-17T22:32:15.553Z,54.88
2018-02-17T22:34:44.145Z,53.22
2018-02-17T22:37:11.592Z,56.78
2018-02-17T22:39:42.073Z,56.70
2018-02-17T22:42:09.641Z,52.75
2018-02-17T22:44:37.067Z,50.63
2018-02-17T22:47:04.547Z,50.83
2018-02-17T22:49:32.597Z,56.05
2018-02-17T22:52:00.188Z,53.83
2018-02-17T22:54:27.694Z,52.92
2018-02-17T22:56:55.206Z,52.10
2018-02-17T22:59:22.648Z,53.63
2018-02-17T23:01:50.171Z,59.33
2018-02-17T23:04:17.738Z,55.20
2018-02-17T23:06:45.328Z,56.85
2018-02-17T23:09:14.514Z,56.40
2018-02-17T23:11:42.109Z,58.33
2018-02-17T23:14:09.522Z,54.92
